Flight Track Log - Related Links

Times and Time Zones

All times are in EDT time to prevent confusion due to time zone crossing. See the NKS311 flight status page for this flight to view local times or setup timezone preferences in your user account.


Time Position Orientation Groundspeed Altitude Reporting Facility
EDT Latitude Longitude Course Direction KTS MPH feet Rate Location/Type
Tue 07:29:12 AM 39.4710 -74.6140 288° West 164 189 1,500  Level FlightAware ADS-B
Tue 07:29:20 AM 39.4742 -74.6239 293° West 175 201 1,700 1,143 Climbing FlightAware ADS-B
Tue 07:29:33 AM 39.4756 -74.6385 277° West 198 228 1,900 667 Climbing FlightAware ADS-B
Tue 07:29:38 AM 39.4743 -74.6449 255° West 206 237 1,900 600 Level FlightAware ADS-B
Tue 07:29:43 AM 39.4715 -74.6517 242° Southwest 225 259 2,000 1,500 Climbing FlightAware ADS-B
Tue 07:29:50 AM 39.4667 -74.6589 229° Southwest 242 278 2,200 1,500 Climbing FlightAware ADS-B
Tue 07:29:55 AM 39.4629 -74.6636 224° Southwest 251 289 2,300 2,000 Climbing FlightAware ADS-B
Tue 07:30:02 AM 39.4564 -74.6700 217° Southwest 258 297 2,600 2,571 Climbing FlightAware ADS-B
Tue 07:30:09 AM 39.4487 -74.6764 213° Southwest 265 305 2,900 3,231 Climbing FlightAware ADS-B
Tue 07:30:15 AM 39.4426 -74.6810 210° Southwest 266 306 3,300 4,286 Climbing FlightAware ADS-B
Tue 07:30:30 AM 39.4264 -74.6922 208° Southwest 260 299 4,400 4,364 Climbing FlightAware ADS-B
Tue 07:30:48 AM 39.4070 -74.7060 209° Southwest 256 295 5,700 3,429 Climbing FlightAware ADS-B
Tue 07:31:05 AM 39.3900 -74.7191 211° Southwest 268 308 6,400 2,824 Climbing FlightAware ADS-B
Tue 07:31:22 AM 39.3721 -74.7338 212° Southwest 274 315 7,300 3,086 Climbing FlightAware ADS-B
Tue 07:31:40 AM 39.3527 -74.7503 213° Southwest 281 323 8,200 2,909 Climbing FlightAware ADS-B
Tue 07:31:55 AM 39.3365 -74.7644 214° Southwest 287 330 8,900 3,200 Climbing FlightAware ADS-B
Tue 07:32:10 AM 39.3194 -74.7792 214° Southwest 289 333 9,800 2,375 Climbing FlightAware ADS-B
Tue 07:32:43 AM 39.2818 -74.8115 214° Southwest 313 360 10,800 1,688 Climbing FlightAware ADS-B
Tue 07:33:14 AM 39.2410 -74.8465 214° Southwest 349 402 11,600 2,066 Climbing FlightAware ADS-B
Tue 07:33:44 AM 39.1992 -74.8819 213° Southwest 356 410 12,900 2,516 Climbing FlightAware ADS-B
Tue 07:34:16 AM 39.1549 -74.9196 213° Southwest 364 419 14,200 2,476 Climbing FlightAware ADS-B
Tue 07:34:47 AM 39.1112 -74.9566 213° Southwest 367 422 15,500 2,129 Climbing FlightAware ADS-B
Tue 07:35:18 AM 39.0667 -74.9945 213° Southwest 383 441 16,400 1,672 Climbing FlightAware ADS-B
Tue 07:35:48 AM 39.0207 -75.0334 213° Southwest 398 458 17,200 1,377 Climbing FlightAware ADS-B
Tue 07:36:19 AM 38.9726 -75.0742 213° Southwest 419 482 17,800 1,672 Climbing FlightAware ADS-B
Tue 07:36:49 AM 38.9227 -75.1162 213° Southwest 423 487 18,900 2,226 Climbing FlightAware ADS-B
Tue 07:37:21 AM 38.8704 -75.1600 213° Southwest 425 489 20,100 2,031 Climbing FlightAware ADS-B
Tue 07:37:54 AM 38.8162 -75.2050 213° Southwest 427 491 21,100 1,902 Climbing FlightAware ADS-B
Tue 07:38:02 AM 38.8020 -75.2156 210° Southwest 435 501 21,400 1,650 Climbing FlightAware ADS-B
Tue 07:38:34 AM 38.7444 -75.2535 207° Southwest 445 512 22,200 1,619 Climbing FlightAware ADS-B
Tue 07:39:05 AM 38.6863 -75.2910 207° Southwest 450 518 23,100 1,258 Climbing FlightAware ADS-B
Tue 07:39:36 AM 38.6288 -75.3282 207° Southwest 463 533 23,500 968 Climbing FlightAware ADS-B
Tue 07:40:07 AM 38.5720 -75.3650 207° Southwest 471 542 24,100 1,352 Climbing FlightAware ADS-B
Tue 07:40:47 AM 38.4980 -75.4130 207° Southwest 475 547 25,100 1,482 Climbing FlightAware ADS-B
Tue 07:41:32 AM 38.4060 -75.4710 206° Southwest 478 550 26,200 1,500 Climbing FlightAware ADS-B
Tue 07:41:55 AM 38.3553 -75.5058 208° Southwest 478 550 26,800 1,565 Climbing FlightAware ADS-B
Tue 07:42:18 AM 38.3136 -75.5401 213° Southwest 471 542 27,400 1,333 Climbing FlightAware ADS-B
Tue 07:42:49 AM 38.2598 -75.5908 217° Southwest 473 544 28,000 1,082 Climbing FlightAware ADS-B
Tue 07:43:19 AM 38.2060 -75.6418 217° Southwest 477 549 28,500 1,048 Climbing FlightAware ADS-B
Tue 07:43:52 AM 38.1482 -75.6962 217° Southwest 480 552 29,100 1,200 Climbing FlightAware ADS-B
Tue 07:44:24 AM 38.0906 -75.7502 216° Southwest 481 554 29,800 1,161 Climbing FlightAware ADS-B
Tue 07:44:54 AM 38.0367 -75.8008 216° Southwest 482 555 30,300 1,200 Climbing FlightAware ADS-B
Tue 07:45:34 AM 37.9644 -75.8683 216° Southwest 483 556 31,200 1,097 Climbing FlightAware ADS-B
Tue 07:46:27 AM 37.8830 -75.9440 216° Southwest 476 548 32,000 839 Climbing FlightAware ADS-B
Tue 07:47:07 AM 37.8120 -76.0110 217° Southwest 480 552 32,500 675 Climbing FlightAware ADS-B
Tue 07:47:47 AM 37.7320 -76.0850 216° Southwest 482 555 32,900 700 Climbing FlightAware ADS-B
Tue 07:48:07 AM 37.6898 -76.1240 216° Southwest 495 570 33,200 842 Climbing FlightAware ADS-B
Tue 07:48:44 AM 37.6216 -76.1870 216° Southwest 496 571 33,700 957 Climbing FlightAware ADS-B
Tue 07:49:16 AM 37.5623 -76.2415 216° Southwest 496 571 34,300 1,000 Climbing FlightAware ADS-B
Tue 07:49:50 AM 37.4998 -76.2990 216° Southwest 495 570 34,800 818 Climbing FlightAware ADS-B
Tue 07:50:22 AM 37.4402 -76.3538 216° Southwest 498 573 35,200 1,065 Climbing FlightAware ADS-B
Tue 07:50:52 AM 37.3875 -76.4020 216° Southwest 492 566 35,900 800 Climbing FlightAware ADS-B
Tue 07:51:22 AM 37.3330 -76.4520 216° Southwest 483 556 36,000 182 Climbing FlightAware ADS-B
Tue 07:51:25 AM 37.3241 -76.4601 216° Southwest 482 555 36,000  Level FlightAware ADS-B
Tue 07:52:02 AM 37.2600 -76.5190 216° Southwest 488 562 36,000  Level FlightAware ADS-B
Tue 07:52:42 AM 37.1870 -76.5860 216° Southwest 492 566 36,000  Level FlightAware ADS-B
Tue 07:53:27 AM 37.1040 -76.6600 215° Southwest 498 573 36,000  Level FlightAware ADS-B
Tue 07:54:07 AM 37.0230 -76.7180 210° Southwest 510 587 36,000  Level FlightAware ADS-B
Tue 07:54:47 AM 36.9370 -76.7630 203° Southwest 519 597 36,000  Level FlightAware ADS-B
Tue 07:55:32 AM 36.8340 -76.8000 196° South 526 605 36,000  Level FlightAware ADS-B
Tue 07:56:12 AM 36.7310 -76.8190 188° South 531 611 36,000  Level FlightAware ADS-B
Tue 07:56:47 AM 36.6520 -76.8300 186° South 529 609 36,000  Level FlightAware ADS-B
Tue 07:57:27 AM 36.5600 -76.8440 187° South 521 600 36,000  Level FlightAware ADS-B
Tue 07:58:57 AM 36.3520 -76.8840 189° South 522 601 36,000  Level FlightAware ADS-B
Tue 07:59:37 AM 36.2710 -76.9030 191° South 522 601 36,000  Level FlightAware ADS-B
Tue 08:00:27 AM 36.1710 -76.9270 191° South 522 601 36,000  Level FlightAware ADS-B
Tue 08:01:07 AM 36.0900 -76.9470 191° South 522 601 36,000  Level FlightAware ADS-B
Tue 08:01:37 AM 36.0130 -77.1060 239° Southwest 492 566 36,000  Level FlightAware ADS-B
Tue 08:02:12 AM 35.9590 -77.1590 218° Southwest 492 566 36,000  Level FlightAware ADS-B
Tue 08:03:02 AM 35.8660 -77.2510 219° Southwest 494 568 36,000  Level FlightAware ADS-B
Tue 08:03:37 AM 35.8000 -77.3160 219° Southwest 494 568 36,000  Level FlightAware ADS-B
Tue 08:04:22 AM 35.7220 -77.3930 219° Southwest 495 570 36,000  Level FlightAware ADS-B
Tue 08:04:27 AM 36.9910 -76.7370 22° Northeast 518 596 36,000  Level FlightAware ADS-B
Tue 08:05:02 AM 35.6480 -77.4650 204° Southwest 494 568 36,000  Level FlightAware ADS-B
Tue 08:05:47 AM 35.5660 -77.5440 218° Southwest 494 568 36,000  Level FlightAware ADS-B
Tue 08:06:27 AM 35.4960 -77.6130 219° Southwest 493 567 36,000  Level FlightAware ADS-B
Tue 08:07:12 AM 35.4130 -77.6930 218° Southwest 494 568 36,000  Level FlightAware ADS-B
Tue 08:07:52 AM 35.3500 -77.7540 218° Southwest 494 568 36,000  Level FlightAware ADS-B
Tue 08:08:32 AM 35.2880 -77.8130 218° Southwest 494 568 36,000  Level FlightAware ADS-B
Tue 08:09:12 AM 35.2270 -77.8710 218° Southwest 494 568 36,000  Level FlightAware ADS-B
Tue 08:09:52 AM 35.1660 -77.9300 218° Southwest 494 568 36,000  Level FlightAware ADS-B
Tue 08:10:42 AM 35.0890 -78.0030 218° Southwest 494 568 36,000  Level FlightAware ADS-B
Tue 08:13:02 AM 34.7820 -78.2980 218° Southwest 494 568 36,000  Level FlightAware ADS-B
Tue 08:13:42 AM 34.7200 -78.3560 218° Southwest 493 567 36,000  Level FlightAware ADS-B
Tue 08:14:52 AM 34.5930 -78.4770 218° Southwest 492 566 36,000  Level FlightAware ADS-B
Tue 08:15:32 AM 34.5320 -78.5340 218° Southwest 492 566 36,000  Level FlightAware ADS-B
Tue 08:16:17 AM 34.4390 -78.6200 217° Southwest 491 565 36,000  Level FlightAware ADS-B
Tue 08:16:52 AM 34.3740 -78.6830 219° Southwest 490 564 36,000  Level FlightAware ADS-B
Tue 08:17:32 AM 34.3020 -78.7490 217° Southwest 490 564 36,000  Level FlightAware ADS-B
Tue 08:18:22 AM 34.2070 -78.8390 218° Southwest 489 563 36,000  Level FlightAware ADS-B
Tue 08:19:02 AM 34.1350 -78.9050 217° Southwest 489 563 36,000  Level FlightAware ADS-B
Tue 08:19:47 AM 34.0540 -78.9800 218° Southwest 489 563 36,000  Level FlightAware ADS-B
Tue 08:20:27 AM 33.9830 -79.0460 218° Southwest 489 563 36,000  Level FlightAware ADS-B
Tue 08:21:12 AM 33.9050 -79.1180 217° Southwest 488 562 36,000  Level FlightAware ADS-B
Tue 08:21:52 AM 33.8320 -79.1860 218° Southwest 487 560 36,000  Level FlightAware ADS-B
Tue 08:22:37 AM 33.7530 -79.2580 217° Southwest 487 560 36,000  Level FlightAware ADS-B
Tue 08:23:17 AM 33.6780 -79.3270 217° Southwest 487 560 36,000  Level FlightAware ADS-B
Tue 08:24:02 AM 33.6010 -79.3980 218° Southwest 487 560 36,000  Level FlightAware ADS-B
Tue 08:24:42 AM 33.5280 -79.4650 217° Southwest 485 558 36,000  Level FlightAware ADS-B
Tue 08:25:22 AM 33.4570 -79.5290 217° Southwest 485 558 36,000  Level FlightAware ADS-B
Tue 08:26:07 AM 33.3750 -79.6040 217° Southwest 485 558 36,000  Level FlightAware ADS-B
Tue 08:26:47 AM 33.3030 -79.6690 217° Southwest 485 558 36,000  Level FlightAware ADS-B
Tue 08:27:32 AM 33.2230 -79.7420 217° Southwest 482 555 36,000  Level FlightAware ADS-B
Tue 08:28:12 AM 33.1530 -79.8050 217° Southwest 481 554 36,000  Level FlightAware ADS-B
Tue 08:28:57 AM 33.0720 -79.8780 217° Southwest 483 556 36,000  Level FlightAware ADS-B
Tue 08:29:37 AM 33.0000 -79.9430 217° Southwest 484 557 36,000  Level FlightAware ADS-B
Tue 08:30:17 AM 32.9290 -80.0060 217° Southwest 484 557 36,000  Level FlightAware ADS-B
Tue 08:31:02 AM 32.8460 -80.0740 215° Southwest 490 564 36,000  Level FlightAware ADS-B
Tue 08:31:42 AM 32.7740 -80.1260 211° Southwest 490 564 36,000  Level FlightAware ADS-B
Tue 08:32:27 AM 32.6820 -80.1940 212° Southwest 491 565 36,000  Level FlightAware ADS-B
Tue 08:33:07 AM 32.6040 -80.2520 212° Southwest 490 564 36,000  Level FlightAware ADS-B
Tue 08:33:47 AM 32.5270 -80.3080 212° Southwest 488 562 36,000  Level FlightAware ADS-B
Tue 08:34:32 AM 32.4450 -80.3690 212° Southwest 486 559 36,000 -71 Level FlightAware ADS-B
Tue 08:35:12 AM 32.3650 -80.4270 211° Southwest 487 560 35,900  Descending FlightAware ADS-B
Tue 08:35:52 AM 32.2880 -80.4830 212° Southwest 488 562 36,000  Climbing FlightAware ADS-B
Tue 08:36:37 AM 32.2030 -80.5450 212° Southwest 489 563 35,900  Descending FlightAware ADS-B
Tue 08:37:17 AM 32.1250 -80.6020 212° Southwest 491 565 36,000 71 Climbing FlightAware ADS-B
Tue 08:38:02 AM 32.0370 -80.6660 212° Southwest 491 565 36,000  Level FlightAware ADS-B
Tue 08:38:42 AM 31.9610 -80.7110 207° Southwest 500 575 36,000  Level FlightAware ADS-B
Tue 08:39:22 AM 31.8750 -80.7390 195° South 499 574 36,000  Level FlightAware ADS-B
Tue 08:40:02 AM 31.7870 -80.7690 196° South 496 571 36,000  Level FlightAware ADS-B
Tue 08:40:42 AM 31.7050 -80.7970 196° South 496 571 36,000  Level FlightAware ADS-B
Tue 08:41:37 AM 31.5880 -80.8360 196° South 496 571 36,000  Level FlightAware ADS-B
Tue 08:42:22 AM 31.5100 -80.8630 196° South 496 571 36,000  Level FlightAware ADS-B
Tue 08:43:02 AM 31.4350 -80.8880 196° South 496 571 36,000  Level FlightAware ADS-B
Tue 08:43:47 AM 31.2960 -80.9340 196° South 498 573 36,000  Level FlightAware ADS-B
Tue 08:44:32 AM 31.2080 -80.9640 196° South 498 573 36,000  Level FlightAware ADS-B
Tue 08:45:12 AM 31.1320 -80.9890 196° South 498 573 36,000  Level FlightAware ADS-B
Tue 08:45:52 AM 31.0570 -81.0140 196° South 498 573 36,000  Level FlightAware ADS-B
Tue 08:46:32 AM 30.9820 -81.0400 197° South 498 573 36,000  Level FlightAware ADS-B
Tue 08:47:22 AM 30.8880 -81.0710 196° South 498 573 36,000  Level FlightAware ADS-B
Tue 08:48:02 AM 30.8120 -81.0960 196° South 498 573 36,000  Level FlightAware ADS-B
Tue 08:48:42 AM 30.7370 -81.1210 196° South 498 573 36,000  Level FlightAware ADS-B
Tue 08:49:22 AM 30.6620 -81.1460 196° South 498 573 36,000 -1,200 Level FlightAware ADS-B
Tue 08:49:37 AM 30.5100 -81.1490 181° South 34,000 -2,000 Descending FlightAware ADS-B
Tue 08:50:22 AM 30.4130 -81.1450 178° South 490 564 34,000 -212 Level FlightAware ADS-B
Tue 08:51:02 AM 30.3140 -81.1430 179° South 490 564 33,700 -706 Descending FlightAware ADS-B
Tue 08:51:47 AM 30.2150 -81.1400 178° South 490 564 33,000 -1,200 Descending FlightAware ADS-B
Tue 08:52:27 AM 30.1210 -81.1370 178° South 484 557 32,000 -1,500 Descending FlightAware ADS-B
Tue 08:53:07 AM 30.0350 -81.1340 178° South 479 551 31,000 -847 Descending FlightAware ADS-B
Tue 08:53:52 AM 29.9510 -81.1310 178° South 477 549 30,800 -1,875 Descending FlightAware ADS-B
Tue 08:54:27 AM 30.0190 -81.1340 358° North 468 539 28,500 -1,725 Descending FlightAware ADS-B
Tue 08:55:12 AM 29.9320 -81.1320 179° South 468 539 28,500 -1,304 Level FlightAware ADS-B
Tue 08:56:22 AM 29.9700 -81.1320 360° North 447 514 26,000 -1,364 Descending FlightAware ADS-B
Tue 08:57:02 AM 29.8990 -81.1290 178° South 447 514 26,000  Level FlightAware ADS-B
Tue 08:57:52 AM 29.8110 -81.1250 178° South 447 514 26,000  Level FlightAware ADS-B
Tue 08:58:32 AM 29.7410 -81.1230 179° South 447 514 26,000  Level FlightAware ADS-B
Tue 08:59:12 AM 29.6710 -81.1200 178° South 447 514 26,000 -6,900 Level FlightAware ADS-B
Tue 08:59:52 AM 29.1900 -81.1040 178° South 455 524 16,800 -7,553 Descending FlightAware ADS-B
Tue 09:00:37 AM 29.0980 -81.0950 175° South 452 520 15,300 -1,059 Descending FlightAware ADS-B
Tue 09:01:17 AM 29.0270 -81.0880 175° South 452 520 15,300 -2,700 Level FlightAware ADS-B
Tue 09:01:57 AM 28.9420 -81.0760 173° South 361 415 11,700 -2,700 Descending FlightAware ADS-B
Tue 09:02:37 AM 28.8770 -81.0660 172° South 360 414 11,700 -267 Level FlightAware ADS-B
Tue 09:03:27 AM 28.7980 -81.0760 186° South 330 380 11,300 -600 Descending FlightAware ADS-B
Tue 09:04:07 AM 28.7440 -81.0990 200° South 296 341 10,800 -1,200 Descending FlightAware ADS-B
Tue 09:04:52 AM 28.6840 -81.1250 201° Southwest 294 338 9,600 -1,629 Descending FlightAware ADS-B
Tue 09:05:17 AM 28.6510 -81.1390 200° South 297 342 8,900 -982 Descending FlightAware ADS-B
Tue 09:05:47 AM 28.6130 -81.1550 200° South 273 314 8,700 -267 Descending FlightAware ADS-B
Tue 09:06:02 AM 28.5960 -81.1620 200° South 260 299 8,700  Level FlightAware ADS-B
Tue 09:06:27 AM 28.5670 -81.1750 201° Southwest 255 293 8,700  Level FlightAware ADS-B
Tue 09:06:57 AM 28.5340 -81.1870 198° South 258 297 8,700 -257 Level FlightAware ADS-B
Tue 09:07:37 AM 28.4860 -81.1870 180° South 256 295 8,400 -771 Descending FlightAware ADS-B
Tue 09:08:07 AM 28.4530 -81.1870 180° South 246 283 7,800 -1,309 Descending FlightAware ADS-B
Tue 09:08:32 AM 28.4260 -81.1870 180° South 242 278 7,200 -1,714 Descending FlightAware ADS-B
Tue 09:08:42 AM 28.4120 -81.1870 180° South 244 281 6,800 -1,733 Descending FlightAware ADS-B
Tue 09:09:17 AM 28.3710 -81.1870 180° South 241 277 5,900 -1,120 Descending FlightAware ADS-B
Tue 09:09:57 AM 28.3300 -81.1870 180° South 210 242 5,400 -857 Descending FlightAware ADS-B
Tue 09:10:27 AM 28.3040 -81.1930 191° South 181 208 4,900 -1,333 Descending FlightAware ADS-B
Tue 09:10:42 AM 28.2970 -81.2050 236° Southwest 183 211 4,400 -2,100 Descending FlightAware ADS-B
Tue 09:11:07 AM 28.2940 -81.2280 262° West 196 226 3,500 -2,073 Descending FlightAware ADS-B
Tue 09:11:37 AM 28.2910 -81.2610 264° West 200 230 2,500 -1,745 Descending FlightAware ADS-B
Tue 09:12:02 AM 28.3040 -81.2800 308° West 174 200 1,900 -1,350 Descending FlightAware ADS-B
Tue 09:12:17 AM 28.3160 -81.2810 356° North 166 191 1,600 -800 Descending FlightAware ADS-B
Tue 09:12:47 AM 28.3390 -81.2810 360° North 150 173 1,300 -533 Descending FlightAware ADS-B
Tue 09:13:02 AM 28.3480 -81.2820 354° North 132 152 1,200 -600 Descending FlightAware ADS-B
Tue 09:13:27 AM 28.3650 -81.2820 360° North 127 146 900 -764 Descending FlightAware ADS-B
Tue 09:13:57 AM 28.3820 -81.2820 360° North 129 148 500 -655 Descending FlightAware ADS-B
Tue 09:14:22 AM 28.3980 -81.2820 360° North 130 150 300 -480 Descending FlightAware ADS-B
Tue 09:14:52 AM 28.4160 -81.2820 360° North 131 151 -600 Descending FlightAware ADS-B

Login

Don't have an account? Register now (free) for customized features, flight alerts, and more!